Terminal Aerodrome Forecast
Issued by NWS

Home | Current Version | Previous Version | Text Only | Print | Product List | Glossary On
Versions: 1 2 3 4 5 6 7 8 9 10 11 12 13 14 15 16 17 18 19 20 21
000
FTUS42 KTBW 041300 AAA
TAFPGD
TAF AMD
KPGD 041305Z 0413/0512 12006KT P6SM SCT020 SCT250
     FM042000 21010KT P6SM SCT030 SCT250
     FM050000 VRB05KT P6SM FEW050 SCT250
     FM050600 11004KT 3SM BR SCT008=

USA.gov is the U.S. government's official web portal to all federal, state and local government web resources and services.